sensor_id;sensor_type;location;lat;lon;timestamp;pressure;altitude;pressure_sealevel;temperature;humidity
75438;BME280;64015;49.392;15.582;2022-12-07T00:01:34;95381.47;;;1.09;100.00
75438;BME280;64015;49.392;15.582;2022-12-07T00:04:02;95380.97;;;1.00;100.00
75438;BME280;64015;49.392;15.582;2022-12-07T00:06:39;95381.31;;;1.04;100.00
75438;BME280;64015;49.392;15.582;2022-12-07T00:09:06;95380.22;;;0.93;100.00
75438;BME280;64015;49.392;15.582;2022-12-07T00:11:33;95375.75;;;1.00;100.00
75438;BME280;64015;49.392;15.582;2022-12-07T00:14:02;95384.59;;;0.93;100.00
75438;BME280;64015;49.392;15.582;2022-12-07T00:16:30;95383.25;;;0.90;100.00
75438;BME280;64015;49.392;15.582;2022-12-07T00:18:57;95379.28;;;0.88;100.00
75438;BME280;64015;49.392;15.582;2022-12-07T00:21:25;95377.41;;;0.95;100.00
75438;BME280;64015;49.392;15.582;2022-12-07T00:23:53;95375.19;;;0.98;100.00
75438;BME280;64015;49.392;15.582;2022-12-07T00:26:21;95378.56;;;0.99;100.00
75438;BME280;64015;49.392;15.582;2022-12-07T00:28:51;95376.47;;;0.89;100.00
75438;BME280;64015;49.392;15.582;2022-12-07T00:31:19;95374.97;;;0.82;100.00
75438;BME280;64015;49.392;15.582;2022-12-07T00:33:45;95373.09;;;0.89;100.00
75438;BME280;64015;49.392;15.582;2022-12-07T00:36:14;95369.28;;;0.91;100.00
75438;BME280;64015;49.392;15.582;2022-12-07T00:38:40;95367.91;;;0.89;100.00
75438;BME280;64015;49.392;15.582;2022-12-07T00:41:12;95355.63;;;0.78;100.00
75438;BME280;64015;49.392;15.582;2022-12-07T00:43:38;95361.81;;;0.77;100.00
75438;BME280;64015;49.392;15.582;2022-12-07T00:46:05;95360.59;;;0.79;100.00
75438;BME280;64015;49.392;15.582;2022-12-07T00:48:30;95362.50;;;0.90;100.00
75438;BME280;64015;49.392;15.582;2022-12-07T00:50:56;95368.97;;;0.81;100.00
75438;BME280;64015;49.392;15.582;2022-12-07T00:53:22;95365.38;;;0.82;100.00
75438;BME280;64015;49.392;15.582;2022-12-07T00:55:48;95371.06;;;0.91;100.00
75438;BME280;64015;49.392;15.582;2022-12-07T00:58:14;95364.59;;;0.82;100.00
75438;BME280;64015;49.392;15.582;2022-12-07T01:00:41;95372.00;;;0.78;100.00
75438;BME280;64015;49.392;15.582;2022-12-07T01:03:09;95369.78;;;0.82;100.00
75438;BME280;64015;49.392;15.582;2022-12-07T01:05:35;95368.78;;;0.83;100.00
75438;BME280;64015;49.392;15.582;2022-12-07T01:08:01;95376.78;;;0.81;100.00
75438;BME280;64015;49.392;15.582;2022-12-07T01:10:27;95373.50;;;0.86;100.00
75438;BME280;64015;49.392;15.582;2022-12-07T01:12:55;95377.09;;;0.85;100.00
75438;BME280;64015;49.392;15.582;2022-12-07T01:15:21;95383.38;;;0.77;100.00
75438;BME280;64015;49.392;15.582;2022-12-07T01:17:46;95385.19;;;0.77;100.00
75438;BME280;64015;49.392;15.582;2022-12-07T01:20:12;95382.44;;;0.71;100.00
75438;BME280;64015;49.392;15.582;2022-12-07T01:22:42;95385.63;;;0.73;100.00
75438;BME280;64015;49.392;15.582;2022-12-07T01:25:10;95379.28;;;0.69;100.00
75438;BME280;64015;49.392;15.582;2022-12-07T01:27:36;95377.59;;;0.75;100.00
75438;BME280;64015;49.392;15.582;2022-12-07T01:30:04;95382.81;;;0.75;100.00
75438;BME280;64015;49.392;15.582;2022-12-07T01:32:30;95387.06;;;0.69;100.00
75438;BME280;64015;49.392;15.582;2022-12-07T01:34:56;95380.44;;;0.73;100.00
75438;BME280;64015;49.392;15.582;2022-12-07T01:37:21;95383.66;;;0.69;100.00
75438;BME280;64015;49.392;15.582;2022-12-07T01:39:51;95370.47;;;0.70;100.00
75438;BME280;64015;49.392;15.582;2022-12-07T01:42:17;95369.97;;;0.80;100.00
75438;BME280;64015;49.392;15.582;2022-12-07T01:47:50;95370.19;;;0.79;100.00
75438;BME280;64015;49.392;15.582;2022-12-07T01:50:18;95366.72;;;0.85;100.00
75438;BME280;64015;49.392;15.582;2022-12-07T01:52:45;95367.19;;;0.82;100.00
75438;BME280;64015;49.392;15.582;2022-12-07T01:55:15;95360.75;;;0.84;100.00
75438;BME280;64015;49.392;15.582;2022-12-07T01:57:43;95358.72;;;0.86;100.00
75438;BME280;64015;49.392;15.582;2022-12-07T02:00:11;95358.81;;;0.80;100.00
75438;BME280;64015;49.392;15.582;2022-12-07T02:02:41;95360.41;;;0.81;100.00
75438;BME280;64015;49.392;15.582;2022-12-07T02:05:09;95355.69;;;0.71;100.00
75438;BME280;64015;49.392;15.582;2022-12-07T02:07:37;95357.72;;;0.87;100.00
75438;BME280;64015;49.392;15.582;2022-12-07T02:10:16;95356.00;;;0.81;100.00
75438;BME280;64015;49.392;15.582;2022-12-07T02:12:44;95359.19;;;0.83;100.00
75438;BME280;64015;49.392;15.582;2022-12-07T02:15:12;95357.94;;;0.86;100.00
75438;BME280;64015;49.392;15.582;2022-12-07T02:17:50;95354.91;;;0.89;100.00
75438;BME280;64015;49.392;15.582;2022-12-07T02:31:02;95361.41;;;0.98;100.00
75438;BME280;64015;49.392;15.582;2022-12-07T02:33:44;95351.59;;;0.82;100.00
75438;BME280;64015;49.392;15.582;2022-12-07T02:36:18;95362.19;;;1.17;100.00
75438;BME280;64015;49.392;15.582;2022-12-07T02:39:08;95357.19;;;1.15;100.00
75438;BME280;64015;49.392;15.582;2022-12-07T02:41:42;95356.50;;;1.08;100.00
75438;BME280;64015;49.392;15.582;2022-12-07T02:44:16;95362.19;;;0.98;100.00
75438;BME280;64015;49.392;15.582;2022-12-07T02:46:53;95357.38;;;1.02;100.00
75438;BME280;64015;49.392;15.582;2022-12-07T02:49:22;95363.50;;;0.89;100.00
75438;BME280;64015;49.392;15.582;2022-12-07T02:51:49;95365.50;;;0.87;100.00
75438;BME280;64015;49.392;15.582;2022-12-07T02:54:17;95360.69;;;0.91;100.00
75438;BME280;64015;49.392;15.582;2022-12-07T03:10:19;95360.22;;;0.94;100.00
75438;BME280;64015;49.392;15.582;2022-12-07T03:13:05;95355.78;;;1.01;100.00
75438;BME280;64015;49.392;15.582;2022-12-07T03:18:20;95352.59;;;0.99;100.00
75438;BME280;64015;49.392;15.582;2022-12-07T03:20:48;95349.00;;;1.00;100.00
75438;BME280;64015;49.392;15.582;2022-12-07T03:23:17;95346.25;;;0.95;100.00
75438;BME280;64015;49.392;15.582;2022-12-07T03:25:47;95352.31;;;1.07;100.00
75438;BME280;64015;49.392;15.582;2022-12-07T03:28:17;95351.44;;;0.95;100.00
75438;BME280;64015;49.392;15.582;2022-12-07T03:31:20;95344.31;;;0.90;100.00
75438;BME280;64015;49.392;15.582;2022-12-07T03:33:49;95347.53;;;0.86;100.00
75438;BME280;64015;49.392;15.582;2022-12-07T03:36:23;95351.72;;;0.87;100.00
75438;BME280;64015;49.392;15.582;2022-12-07T03:39:03;95348.56;;;0.85;100.00
75438;BME280;64015;49.392;15.582;2022-12-07T03:41:35;95346.31;;;0.88;100.00
75438;BME280;64015;49.392;15.582;2022-12-07T03:44:02;95345.53;;;0.88;100.00
75438;BME280;64015;49.392;15.582;2022-12-07T03:46:46;95339.91;;;0.91;100.00
75438;BME280;64015;49.392;15.582;2022-12-07T03:49:25;95341.94;;;0.89;100.00
75438;BME280;64015;49.392;15.582;2022-12-07T03:57:12;95339.63;;;0.62;100.00
75438;BME280;64015;49.392;15.582;2022-12-07T03:59:39;95330.03;;;0.63;100.00
75438;BME280;64015;49.392;15.582;2022-12-07T04:02:07;95338.25;;;0.60;100.00
75438;BME280;64015;49.392;15.582;2022-12-07T04:04:33;95327.47;;;0.38;100.00
75438;BME280;64015;49.392;15.582;2022-12-07T04:06:59;95325.53;;;0.33;100.00
75438;BME280;64015;49.392;15.582;2022-12-07T04:09:26;95331.31;;;0.35;100.00
75438;BME280;64015;49.392;15.582;2022-12-07T04:11:52;95329.25;;;0.37;100.00
75438;BME280;64015;49.392;15.582;2022-12-07T04:14:18;95325.00;;;0.25;100.00
75438;BME280;64015;49.392;15.582;2022-12-07T04:16:48;95324.63;;;0.21;100.00
75438;BME280;64015;49.392;15.582;2022-12-07T04:19:16;95317.50;;;0.17;100.00
75438;BME280;64015;49.392;15.582;2022-12-07T04:21:42;95327.72;;;0.12;100.00
75438;BME280;64015;49.392;15.582;2022-12-07T04:24:08;95320.78;;;0.06;100.00
75438;BME280;64015;49.392;15.582;2022-12-07T04:26:33;95326.59;;;0.01;100.00
75438;BME280;64015;49.392;15.582;2022-12-07T04:28:59;95331.75;;;0.08;100.00
75438;BME280;64015;49.392;15.582;2022-12-07T04:31:25;95324.28;;;0.18;100.00
75438;BME280;64015;49.392;15.582;2022-12-07T04:33:50;95320.13;;;0.35;100.00
75438;BME280;64015;49.392;15.582;2022-12-07T04:36:16;95321.22;;;0.27;100.00
75438;BME280;64015;49.392;15.582;2022-12-07T04:38:42;95330.03;;;0.45;100.00
75438;BME280;64015;49.392;15.582;2022-12-07T04:41:08;95326.03;;;0.42;100.00
75438;BME280;64015;49.392;15.582;2022-12-07T04:43:35;95325.19;;;0.48;100.00
75438;BME280;64015;49.392;15.582;2022-12-07T04:46:01;95328.34;;;0.50;100.00
75438;BME280;64015;49.392;15.582;2022-12-07T04:48:28;95329.16;;;0.51;100.00
75438;BME280;64015;49.392;15.582;2022-12-07T04:50:53;95324.63;;;0.46;100.00
75438;BME280;64015;49.392;15.582;2022-12-07T04:53:19;95323.34;;;0.55;100.00
75438;BME280;64015;49.392;15.582;2022-12-07T04:55:45;95324.03;;;0.44;100.00
75438;BME280;64015;49.392;15.582;2022-12-07T04:58:12;95317.97;;;0.50;100.00
75438;BME280;64015;49.392;15.582;2022-12-07T05:00:38;95317.47;;;0.60;100.00
75438;BME280;64015;49.392;15.582;2022-12-07T05:03:04;95320.78;;;0.67;100.00
75438;BME280;64015;49.392;15.582;2022-12-07T05:05:29;95322.16;;;0.69;100.00
75438;BME280;64015;49.392;15.582;2022-12-07T05:07:55;95322.97;;;0.52;100.00
75438;BME280;64015;49.392;15.582;2022-12-07T05:10:21;95309.19;;;0.69;100.00
75438;BME280;64015;49.392;15.582;2022-12-07T05:12:47;95309.41;;;0.68;100.00
75438;BME280;64015;49.392;15.582;2022-12-07T05:15:13;95307.09;;;0.60;100.00
75438;BME280;64015;49.392;15.582;2022-12-07T05:17:39;95307.75;;;0.55;100.00
75438;BME280;64015;49.392;15.582;2022-12-07T05:20:06;95319.88;;;0.61;100.00
75438;BME280;64015;49.392;15.582;2022-12-07T05:22:32;95317.84;;;0.63;100.00
75438;BME280;64015;49.392;15.582;2022-12-07T05:24:57;95317.66;;;0.65;100.00
75438;BME280;64015;49.392;15.582;2022-12-07T05:27:25;95318.84;;;0.62;100.00
75438;BME280;64015;49.392;15.582;2022-12-07T05:29:50;95317.69;;;0.58;100.00
75438;BME280;64015;49.392;15.582;2022-12-07T05:32:16;95320.44;;;0.63;100.00
75438;BME280;64015;49.392;15.582;2022-12-07T05:34:41;95314.97;;;0.71;100.00
75438;BME280;64015;49.392;15.582;2022-12-07T05:37:07;95320.56;;;0.68;100.00
75438;BME280;64015;49.392;15.582;2022-12-07T05:39:33;95320.94;;;0.72;100.00
75438;BME280;64015;49.392;15.582;2022-12-07T05:41:58;95320.66;;;0.62;100.00
75438;BME280;64015;49.392;15.582;2022-12-07T05:44:40;95323.47;;;0.60;100.00
75438;BME280;64015;49.392;15.582;2022-12-07T05:47:06;95331.88;;;0.56;100.00
75438;BME280;64015;49.392;15.582;2022-12-07T05:49:31;95327.56;;;0.50;100.00
75438;BME280;64015;49.392;15.582;2022-12-07T05:51:57;95328.22;;;0.63;100.00
75438;BME280;64015;49.392;15.582;2022-12-07T05:54:23;95317.69;;;0.58;100.00
75438;BME280;64015;49.392;15.582;2022-12-07T05:56:49;95321.44;;;0.62;100.00
75438;BME280;64015;49.392;15.582;2022-12-07T05:59:15;95322.53;;;0.55;100.00
75438;BME280;64015;49.392;15.582;2022-12-07T06:02:05;95316.09;;;0.57;100.00
75438;BME280;64015;49.392;15.582;2022-12-07T06:04:33;95306.72;;;0.56;100.00
75438;BME280;64015;49.392;15.582;2022-12-07T06:06:59;95300.19;;;0.72;100.00
75438;BME280;64015;49.392;15.582;2022-12-07T06:09:26;95308.25;;;0.64;100.00
75438;BME280;64015;49.392;15.582;2022-12-07T06:11:53;95306.09;;;0.61;100.00
75438;BME280;64015;49.392;15.582;2022-12-07T06:14:37;95291.31;;;0.61;100.00
75438;BME280;64015;49.392;15.582;2022-12-07T06:17:03;95305.16;;;0.55;100.00
75438;BME280;64015;49.392;15.582;2022-12-07T06:19:29;95298.88;;;0.63;100.00
75438;BME280;64015;49.392;15.582;2022-12-07T06:21:55;95311.13;;;0.56;100.00
75438;BME280;64015;49.392;15.582;2022-12-07T06:24:20;95308.69;;;0.61;100.00
75438;BME280;64015;49.392;15.582;2022-12-07T06:26:46;95314.38;;;0.69;100.00
75438;BME280;64015;49.392;15.582;2022-12-07T06:29:13;95314.47;;;0.63;100.00
75438;BME280;64015;49.392;15.582;2022-12-07T06:31:39;95304.41;;;0.66;100.00
75438;BME280;64015;49.392;15.582;2022-12-07T06:34:07;95316.97;;;0.69;100.00
75438;BME280;64015;49.392;15.582;2022-12-07T06:36:34;95312.22;;;0.66;100.00
75438;BME280;64015;49.392;15.582;2022-12-07T06:39:00;95323.03;;;0.63;100.00
75438;BME280;64015;49.392;15.582;2022-12-07T06:41:25;95320.50;;;0.57;100.00
75438;BME280;64015;49.392;15.582;2022-12-07T06:43:51;95320.72;;;0.55;100.00
75438;BME280;64015;49.392;15.582;2022-12-07T06:46:17;95318.13;;;0.55;100.00
75438;BME280;64015;49.392;15.582;2022-12-07T06:48:43;95330.47;;;0.60;100.00
75438;BME280;64015;49.392;15.582;2022-12-07T06:51:09;95326.75;;;0.49;100.00
75438;BME280;64015;49.392;15.582;2022-12-07T06:53:35;95318.06;;;0.62;98.86
75438;BME280;64015;49.392;15.582;2022-12-07T06:56:02;95332.25;;;0.59;99.54
75438;BME280;64015;49.392;15.582;2022-12-07T06:58:27;95317.28;;;0.61;99.99
75438;BME280;64015;49.392;15.582;2022-12-07T07:00:53;95322.16;;;0.69;99.16
75438;BME280;64015;49.392;15.582;2022-12-07T07:03:19;95328.66;;;0.60;100.00
75438;BME280;64015;49.392;15.582;2022-12-07T07:05:45;95323.47;;;0.60;100.00
75438;BME280;64015;49.392;15.582;2022-12-07T07:08:11;95328.56;;;0.67;100.00
75438;BME280;64015;49.392;15.582;2022-12-07T07:10:37;95340.84;;;0.60;100.00
75438;BME280;64015;49.392;15.582;2022-12-07T07:13:03;95335.00;;;0.64;100.00
75438;BME280;64015;49.392;15.582;2022-12-07T07:15:29;95328.03;;;0.65;100.00
75438;BME280;64015;49.392;15.582;2022-12-07T07:17:55;95328.66;;;0.60;100.00
75438;BME280;64015;49.392;15.582;2022-12-07T07:20:21;95324.84;;;0.63;100.00
75438;BME280;64015;49.392;15.582;2022-12-07T07:22:48;95326.44;;;0.64;100.00
75438;BME280;64015;49.392;15.582;2022-12-07T07:25:14;95328.16;;;0.70;100.00
75438;BME280;64015;49.392;15.582;2022-12-07T07:27:39;95339.75;;;0.67;98.83
75438;BME280;64015;49.392;15.582;2022-12-07T07:30:06;95336.44;;;0.60;99.65
75438;BME280;64015;49.392;15.582;2022-12-07T07:32:32;95344.59;;;0.64;99.81
75438;BME280;64015;49.392;15.582;2022-12-07T07:34:58;95348.03;;;0.58;100.00
75438;BME280;64015;49.392;15.582;2022-12-07T07:37:23;95342.84;;;0.58;98.31
75438;BME280;64015;49.392;15.582;2022-12-07T07:39:49;95338.66;;;0.57;97.27
75438;BME280;64015;49.392;15.582;2022-12-07T07:42:15;95363.81;;;0.56;95.72
75438;BME280;64015;49.392;15.582;2022-12-07T07:44:41;95345.44;;;0.58;96.67
75438;BME280;64015;49.392;15.582;2022-12-07T07:47:07;95352.16;;;0.65;95.36
75438;BME280;64015;49.392;15.582;2022-12-07T07:49:32;95355.69;;;0.71;95.64
75438;BME280;64015;49.392;15.582;2022-12-07T07:51:58;95350.59;;;0.64;93.84
75438;BME280;64015;49.392;15.582;2022-12-07T07:54:24;95352.44;;;0.57;92.98
75438;BME280;64015;49.392;15.582;2022-12-07T07:56:49;95354.31;;;0.50;93.07
75438;BME280;64015;49.392;15.582;2022-12-07T07:59:15;95346.53;;;0.50;92.76
75438;BME280;64015;49.392;15.582;2022-12-07T08:01:41;95355.31;;;0.67;90.04
75438;BME280;64015;49.392;15.582;2022-12-07T08:04:07;95360.59;;;0.61;89.71
75438;BME280;64015;49.392;15.582;2022-12-07T08:06:32;95358.06;;;0.54;89.17
75438;BME280;64015;49.392;15.582;2022-12-07T08:08:58;95355.97;;;0.45;89.68
75438;BME280;64015;49.392;15.582;2022-12-07T08:11:24;95353.69;;;0.30;91.13
75438;BME280;64015;49.392;15.582;2022-12-07T08:13:50;95360.84;;;0.34;90.67
75438;BME280;64015;49.392;15.582;2022-12-07T08:16:16;95359.16;;;0.22;91.57
75438;BME280;64015;49.392;15.582;2022-12-07T08:18:42;95348.94;;;0.27;92.60
75438;BME280;64015;49.392;15.582;2022-12-07T08:21:11;95362.91;;;0.26;92.41
75438;BME280;64015;49.392;15.582;2022-12-07T08:23:37;95355.88;;;0.33;92.13
75438;BME280;64015;49.392;15.582;2022-12-07T08:26:09;95369.25;;;0.30;91.88
75438;BME280;64015;49.392;15.582;2022-12-07T08:28:35;95365.16;;;0.41;92.29
75438;BME280;64015;49.392;15.582;2022-12-07T08:31:19;95366.38;;;0.38;91.92
75438;BME280;64015;49.392;15.582;2022-12-07T08:33:46;95364.03;;;0.36;92.74
75438;BME280;64015;49.392;15.582;2022-12-07T08:36:12;95364.06;;;0.30;92.25
75438;BME280;64015;49.392;15.582;2022-12-07T08:38:39;95360.31;;;0.26;92.73
75438;BME280;64015;49.392;15.582;2022-12-07T08:41:07;95363.47;;;0.28;93.26
75438;BME280;64015;49.392;15.582;2022-12-07T08:43:33;95360.31;;;0.26;93.26
75438;BME280;64015;49.392;15.582;2022-12-07T08:46:09;95361.91;;;0.27;93.60
75438;BME280;64015;49.392;15.582;2022-12-07T08:48:44;95362.38;;;0.17;94.74
75438;BME280;64015;49.392;15.582;2022-12-07T08:51:11;95368.84;;;0.33;93.32
75438;BME280;64015;49.392;15.582;2022-12-07T08:53:38;95361.66;;;0.28;93.73
75438;BME280;64015;49.392;15.582;2022-12-07T08:56:06;95366.56;;;0.43;92.74
75438;BME280;64015;49.392;15.582;2022-12-07T08:58:33;95365.84;;;0.54;91.71
75438;BME280;64015;49.392;15.582;2022-12-07T09:00:59;95362.81;;;0.75;91.85
75438;BME280;64015;49.392;15.582;2022-12-07T09:03:25;95367.81;;;0.95;90.42
75438;BME280;64015;49.392;15.582;2022-12-07T09:05:52;95363.56;;;1.19;88.17
75438;BME280;64015;49.392;15.582;2022-12-07T09:08:19;95355.97;;;1.18;88.36
75438;BME280;64015;49.392;15.582;2022-12-07T09:10:45;95354.75;;;1.50;88.00
75438;BME280;64015;49.392;15.582;2022-12-07T09:13:11;95346.50;;;1.83;84.95
75438;BME280;64015;49.392;15.582;2022-12-07T09:15:37;95363.34;;;2.45;81.40
75438;BME280;64015;49.392;15.582;2022-12-07T09:18:03;95353.47;;;2.82;78.93
75438;BME280;64015;49.392;15.582;2022-12-07T09:20:29;95343.97;;;3.28;75.98
75438;BME280;64015;49.392;15.582;2022-12-07T09:22:54;95351.91;;;3.61;74.37
75438;BME280;64015;49.392;15.582;2022-12-07T09:25:20;95333.03;;;4.16;71.80
75438;BME280;64015;49.392;15.582;2022-12-07T09:27:46;95332.88;;;4.78;69.46
75438;BME280;64015;49.392;15.582;2022-12-07T09:30:12;95321.09;;;5.41;66.75
75438;BME280;64015;49.392;15.582;2022-12-07T09:32:37;95327.19;;;5.46;65.72
75438;BME280;64015;49.392;15.582;2022-12-07T09:35:03;95335.41;;;5.60;64.35
75438;BME280;64015;49.392;15.582;2022-12-07T09:37:29;95329.56;;;6.02;62.38
75438;BME280;64015;49.392;15.582;2022-12-07T09:39:56;95325.84;;;5.92;62.93
75438;BME280;64015;49.392;15.582;2022-12-07T09:42:29;95331.56;;;5.89;61.69
75438;BME280;64015;49.392;15.582;2022-12-07T09:44:58;95323.00;;;5.99;61.71
75438;BME280;64015;49.392;15.582;2022-12-07T09:47:26;95325.09;;;6.29;60.13
75438;BME280;64015;49.392;15.582;2022-12-07T09:49:59;95315.59;;;6.60;58.81
75438;BME280;64015;49.392;15.582;2022-12-07T09:52:28;95315.66;;;6.70;57.54
75438;BME280;64015;49.392;15.582;2022-12-07T09:54:54;95316.91;;;7.15;56.71
75438;BME280;64015;49.392;15.582;2022-12-07T09:57:25;95312.41;;;7.00;57.38
75438;BME280;64015;49.392;15.582;2022-12-07T09:59:54;95318.25;;;7.12;56.04
75438;BME280;64015;49.392;15.582;2022-12-07T10:04:59;95329.78;;;7.16;55.46
75438;BME280;64015;49.392;15.582;2022-12-07T10:07:25;95307.59;;;5.05;63.13
75438;BME280;64015;49.392;15.582;2022-12-07T10:09:54;95320.03;;;4.76;65.61
75438;BME280;64015;49.392;15.582;2022-12-07T10:12:20;95308.88;;;4.81;64.88
75438;BME280;64015;49.392;15.582;2022-12-07T10:14:58;95310.38;;;4.77;65.30
75438;BME280;64015;49.392;15.582;2022-12-07T10:17:30;95323.28;;;4.11;67.42
75438;BME280;64015;49.392;15.582;2022-12-07T10:20:22;95307.06;;;5.03;64.40
75438;BME280;64015;49.392;15.582;2022-12-07T10:22:59;95294.28;;;6.46;57.64
75438;BME280;64015;49.392;15.582;2022-12-07T10:25:29;95303.38;;;6.76;54.72
75438;BME280;64015;49.392;15.582;2022-12-07T10:27:59;95313.44;;;6.94;53.72
75438;BME280;64015;49.392;15.582;2022-12-07T10:30:25;95311.44;;;7.16;53.11
75438;BME280;64015;49.392;15.582;2022-12-07T10:32:51;95300.16;;;7.16;52.80
75438;BME280;64015;49.392;15.582;2022-12-07T10:35:27;95293.25;;;7.87;51.57
75438;BME280;64015;49.392;15.582;2022-12-07T10:37:58;95290.03;;;7.55;52.05
75438;BME280;64015;49.392;15.582;2022-12-07T10:40:28;95295.09;;;7.86;51.61
75438;BME280;64015;49.392;15.582;2022-12-07T10:45:30;95288.84;;;6.16;57.23
75438;BME280;64015;49.392;15.582;2022-12-07T11:01:41;95308.78;;;1.92;80.13
75438;BME280;64015;49.392;15.582;2022-12-07T11:04:18;95309.09;;;1.84;79.14
75438;BME280;64015;49.392;15.582;2022-12-07T11:15:24;95312.41;;;1.61;85.34
75438;BME280;64015;49.392;15.582;2022-12-07T11:17:59;95314.97;;;1.38;87.44
75438;BME280;64015;49.392;15.582;2022-12-07T11:23:21;95296.63;;;1.33;92.67
75438;BME280;64015;49.392;15.582;2022-12-07T11:26:05;95294.25;;;1.31;91.88
75438;BME280;64015;49.392;15.582;2022-12-07T11:37:09;95284.88;;;1.72;88.12
75438;BME280;64015;49.392;15.582;2022-12-07T11:39:48;95310.66;;;1.73;88.14
75438;BME280;64015;49.392;15.582;2022-12-07T11:48:01;95294.13;;;1.56;88.25
75438;BME280;64015;49.392;15.582;2022-12-07T11:50:34;95288.06;;;1.97;90.31
75438;BME280;64015;49.392;15.582;2022-12-07T11:56:00;95297.31;;;1.81;86.74
75438;BME280;64015;49.392;15.582;2022-12-07T12:06:32;95285.13;;;1.40;88.09
75438;BME280;64015;49.392;15.582;2022-12-07T12:14:40;95299.31;;;1.26;88.04
75438;BME280;64015;49.392;15.582;2022-12-07T12:20:17;95286.00;;;1.34;87.06
75438;BME280;64015;49.392;15.582;2022-12-07T12:22:47;95288.78;;;1.51;87.60
75438;BME280;64015;49.392;15.582;2022-12-07T12:25:52;95273.28;;;1.44;87.51
75438;BME280;64015;49.392;15.582;2022-12-07T12:28:29;95272.50;;;1.44;87.15
75438;BME280;64015;49.392;15.582;2022-12-07T12:33:33;95269.06;;;1.32;89.10
75438;BME280;64015;49.392;15.582;2022-12-07T12:39:11;95277.84;;;1.19;92.11
75438;BME280;64015;49.392;15.582;2022-12-07T12:46:56;95280.44;;;1.19;92.01
75438;BME280;64015;49.392;15.582;2022-12-07T12:54:37;95286.75;;;1.23;91.25
75438;BME280;64015;49.392;15.582;2022-12-07T12:57:26;95280.78;;;1.23;92.34
75438;BME280;64015;49.392;15.582;2022-12-07T13:02:32;95289.56;;;1.22;92.60
75438;BME280;64015;49.392;15.582;2022-12-07T13:23:27;95272.00;;;1.35;91.86
75438;BME280;64015;49.392;15.582;2022-12-07T13:25:59;95269.78;;;1.39;91.44
75438;BME280;64015;49.392;15.582;2022-12-07T13:28:35;95284.91;;;1.42;91.03
75438;BME280;64015;49.392;15.582;2022-12-07T13:33:46;95293.50;;;1.42;91.85
75438;BME280;64015;49.392;15.582;2022-12-07T13:36:21;95281.03;;;1.33;91.01
75438;BME280;64015;49.392;15.582;2022-12-07T13:38:51;95283.06;;;1.31;93.15
75438;BME280;64015;49.392;15.582;2022-12-07T13:41:19;95284.91;;;1.42;92.08
75438;BME280;64015;49.392;15.582;2022-12-07T13:43:52;95312.22;;;1.33;93.16
75438;BME280;64015;49.392;15.582;2022-12-07T13:46:29;95288.63;;;1.34;93.13
75438;BME280;64015;49.392;15.582;2022-12-07T13:48:56;95292.44;;;1.32;92.36
75438;BME280;64015;49.392;15.582;2022-12-07T13:51:26;95294.50;;;1.30;92.30
75438;BME280;64015;49.392;15.582;2022-12-07T13:54:01;95290.31;;;1.29;93.31
75438;BME280;64015;49.392;15.582;2022-12-07T13:56:35;95284.31;;;1.28;93.91
75438;BME280;64015;49.392;15.582;2022-12-07T13:59:01;95282.78;;;1.39;92.86
75438;BME280;64015;49.392;15.582;2022-12-07T14:01:28;95281.63;;;1.35;92.81
75438;BME280;64015;49.392;15.582;2022-12-07T14:03:56;95287.47;;;1.30;92.87
75438;BME280;64015;49.392;15.582;2022-12-07T14:06:51;95286.31;;;1.26;93.68
75438;BME280;64015;49.392;15.582;2022-12-07T14:09:20;95280.44;;;1.19;93.53
75438;BME280;64015;49.392;15.582;2022-12-07T14:11:48;95283.72;;;1.26;93.37
75438;BME280;64015;49.392;15.582;2022-12-07T14:14:22;95300.22;;;1.20;93.48
75438;BME280;64015;49.392;15.582;2022-12-07T14:17:11;95290.03;;;1.19;93.77
75438;BME280;64015;49.392;15.582;2022-12-07T14:22:08;95277.25;;;1.17;94.50
75438;BME280;64015;49.392;15.582;2022-12-07T14:24:42;95291.53;;;1.26;93.90
75438;BME280;64015;49.392;15.582;2022-12-07T14:27:17;95305.69;;;1.12;94.70
75438;BME280;64015;49.392;15.582;2022-12-07T14:29:43;95292.47;;;1.13;94.99
75438;BME280;64015;49.392;15.582;2022-12-07T14:32:28;95310.75;;;1.07;95.15
75438;BME280;64015;49.392;15.582;2022-12-07T14:37:28;95282.41;;;1.05;96.20
75438;BME280;64015;49.392;15.582;2022-12-07T14:39:55;95281.38;;;1.06;95.37
75438;BME280;64015;49.392;15.582;2022-12-07T14:42:23;95271.31;;;0.98;96.48
75438;BME280;64015;49.392;15.582;2022-12-07T14:44:53;95274.81;;;1.04;96.50
75438;BME280;64015;49.392;15.582;2022-12-07T14:47:18;95279.47;;;1.02;95.71
75438;BME280;64015;49.392;15.582;2022-12-07T14:49:44;95277.72;;;0.96;96.99
75438;BME280;64015;49.392;15.582;2022-12-07T14:52:22;95283.59;;;0.91;96.67
75438;BME280;64015;49.392;15.582;2022-12-07T14:54:51;95278.31;;;0.98;96.38
75438;BME280;64015;49.392;15.582;2022-12-07T14:57:16;95287.81;;;1.04;95.71
75438;BME280;64015;49.392;15.582;2022-12-07T14:59:42;95285.50;;;0.96;96.56
75438;BME280;64015;49.392;15.582;2022-12-07T15:02:11;95281.13;;;0.96;96.83
75438;BME280;64015;49.392;15.582;2022-12-07T15:04:37;95285.44;;;0.84;98.25
75438;BME280;64015;49.392;15.582;2022-12-07T15:07:04;95286.25;;;0.85;98.56
75438;BME280;64015;49.392;15.582;2022-12-07T15:09:31;95287.19;;;0.90;98.21
75438;BME280;64015;49.392;15.582;2022-12-07T15:11:56;95292.91;;;0.81;98.62
75438;BME280;64015;49.392;15.582;2022-12-07T15:14:22;95285.81;;;0.88;98.90
75438;BME280;64015;49.392;15.582;2022-12-07T15:16:48;95300.81;;;0.86;98.79
75438;BME280;64015;49.392;15.582;2022-12-07T15:19:19;95300.81;;;0.86;98.72
75438;BME280;64015;49.392;15.582;2022-12-07T15:21:48;95292.28;;;0.97;97.77
75438;BME280;64015;49.392;15.582;2022-12-07T15:24:14;95290.78;;;0.89;98.11
75438;BME280;64015;49.392;15.582;2022-12-07T15:26:40;95289.00;;;0.90;98.67
75438;BME280;64015;49.392;15.582;2022-12-07T15:29:07;95290.00;;;0.89;98.09